Capt. Frank Banta Jr — WDH6399 — position and weather

sailwx.info

Track history (hours):
 
Tides and Currents Weather Stations Pressure Air Temp Water Temp Dewpoint Dewpoint Depression Visibility Wind Speed Wind Dir Waves Ship Positions

Capt. Frank Banta Jr

Owner: Chem Carriers Towing, LLC, Sunshine, LA. More information available from US FCC via Universal Licensing System and Coast Guard Vessel Documentation Center.

Last reported at 2017-Nov-19 18:00 UTC. Time now 2017-Nov-19 18:11 UTC.
Position N 30°11' W 093°19'.

Length 27 m.

Type: Tug. MMSI: 367637540.

Date/timePositionNaut miles runAvg speedWind from/ knotsBaromVisibWave heightAir tempDewpointWater temp
2017-Nov-19 18:00N 30°11' W 093°19'0 0.0
2017-Nov-19 17:30N 30°11' W 093°19'0 0.0
2017-Nov-19 17:00N 30°11' W 093°19'0 0.0
2017-Nov-19 16:30N 30°11' W 093°19'0 0.0
2017-Nov-19 16:00N 30°11' W 093°19'0 0.0
2017-Nov-19 15:30N 30°11' W 093°19'0 0.0
2017-Nov-19 15:00N 30°11' W 093°19'0 0.0
2017-Nov-19 14:30N 30°11' W 093°19'0 0.0
2017-Nov-19 14:00N 30°11' W 093°19'0 0.0
2017-Nov-19 13:30N 30°11' W 093°19'0 0.0
2017-Nov-19 13:00N 30°11' W 093°19'0 0.0
2017-Nov-19 12:30N 30°11' W 093°19'0 0.0
2017-Nov-19 12:00N 30°11' W 093°19'0 0.0
2017-Nov-19 11:30N 30°11' W 093°19'0 0.0
2017-Nov-19 11:00N 30°11' W 093°19'0 0.0
2017-Nov-19 10:30N 30°11' W 093°19'0 0.0
2017-Nov-19 10:00N 30°11' W 093°19'0 0.0
2017-Nov-19 09:30N 30°11' W 093°19'0 0.0
2017-Nov-19 09:00N 30°11' W 093°19'0 0.0
2017-Nov-19 08:30N 30°11' W 093°19'0 0.0
2017-Nov-19 08:00N 30°11' W 093°19'0 0.0
2017-Nov-19 07:30N 30°11' W 093°19'0 0.0
2017-Nov-19 07:00N 30°11' W 093°19'0 0.0
2017-Nov-19 06:30N 30°11' W 093°19'0 0.0
2017-Nov-19 06:00N 30°11' W 093°19'0 0.0
2017-Nov-19 05:30N 30°11' W 093°19'0 0.0
2017-Nov-19 05:00N 30°11' W 093°19'0 0.0
2017-Nov-19 04:30N 30°11' W 093°19'0 0.0
2017-Nov-19 04:00N 30°11' W 093°19'0 0.0
2017-Nov-19 03:30N 30°11' W 093°19'0 0.0
2017-Nov-19 03:00N 30°11' W 093°19'0 0.0
2017-Nov-19 02:30N 30°11' W 093°19'0 0.0
2017-Nov-19 02:00N 30°11' W 093°19'0 0.0
2017-Nov-19 01:30N 30°11' W 093°19'0 0.0
2017-Nov-19 01:00N 30°11' W 093°19'0 0.4
2017-Nov-19 00:30N 30°11' W 093°18'0 0.7
2017-Nov-19 00:00N 30°11' W 093°19'3 5.3
2017-Nov-18 23:30N 30°09' W 093°20'3 6.8
2017-Nov-18 23:00N 30°05' W 093°20'1 2.5
2017-Nov-18 22:30N 30°04' W 093°21'2 4.7
2017-Nov-18 22:00N 30°06' W 093°20'4 7.3
2017-Nov-18 21:30N 30°10' W 093°19'1 2.3
2017-Nov-18 21:00N 30°11' W 093°19'0 0.0
2017-Nov-18 20:30N 30°11' W 093°19'0 0.3
2017-Nov-18 20:00N 30°11' W 093°19'0 0.0
2017-Nov-18 19:30N 30°11' W 093°19'0 0.0
2017-Nov-18 19:00N 30°11' W 093°19'0 0.0
2017-Nov-18 18:30N 30°11' W 093°19'0 0.0
2017-Nov-18 18:00N 30°11' W 093°19'0 0.0
2017-Nov-18 17:30N 30°11' W 093°19'0 0.0
2017-Nov-18 17:00N 30°11' W 093°19'0 0.0
2017-Nov-18 16:30N 30°11' W 093°19'0 0.0
2017-Nov-18 16:00N 30°11' W 093°19'0 0.0
2017-Nov-18 15:30N 30°11' W 093°19'0 0.0
2017-Nov-18 15:00N 30°11' W 093°19'0 0.0
2017-Nov-18 14:30N 30°11' W 093°19'0 0.0
2017-Nov-18 14:00N 30°11' W 093°19'0 0.0
2017-Nov-18 13:30N 30°11' W 093°19'0 0.0
2017-Nov-18 13:00N 30°11' W 093°19'0 0.0
2017-Nov-18 12:30N 30°11' W 093°19'0 0.0
2017-Nov-18 12:00N 30°11' W 093°19'0 0.0
2017-Nov-18 11:30N 30°11' W 093°19'0 0.0
2017-Nov-18 11:00N 30°11' W 093°19'0 0.0
2017-Nov-18 10:30N 30°11' W 093°19'0 0.0
2017-Nov-18 10:00N 30°11' W 093°19'0 0.0
2017-Nov-18 09:30N 30°11' W 093°19'0 0.0
2017-Nov-18 09:00N 30°11' W 093°19'0 0.0
2017-Nov-18 08:30N 30°11' W 093°19'0 0.0
2017-Nov-18 08:00N 30°11' W 093°19'0 0.0
2017-Nov-18 07:30N 30°11' W 093°19'0 0.0
2017-Nov-18 07:00N 30°11' W 093°19'0 0.0
2017-Nov-18 06:30N 30°11' W 093°19'0 0.0
2017-Nov-18 06:00N 30°11' W 093°19'0 0.0
2017-Nov-18 05:30N 30°11' W 093°19'0 0.0
2017-Nov-18 05:00N 30°11' W 093°19'0 0.0
2017-Nov-18 04:30N 30°11' W 093°19'0 0.0
2017-Nov-18 04:00N 30°11' W 093°19'0 0.0
2017-Nov-18 03:30N 30°11' W 093°19'0 0.0
2017-Nov-18 03:00N 30°11' W 093°19'0 0.3
2017-Nov-18 02:30N 30°11' W 093°19'0 0.3
2017-Nov-18 02:00N 30°11' W 093°19'0 0.0
2017-Nov-18 01:30N 30°11' W 093°19'0 0.0
2017-Nov-18 01:00N 30°11' W 093°19'0 0.0
2017-Nov-18 00:30N 30°11' W 093°19'0 0.0
2017-Nov-18 00:00N 30°11' W 093°19'0 0.0
2017-Nov-17 23:30N 30°11' W 093°19'0 0.0
2017-Nov-17 23:00N 30°11' W 093°19'0 0.0
2017-Nov-17 22:30N 30°11' W 093°19'0 0.0
2017-Nov-17 22:00N 30°11' W 093°19'0 0.1
2017-Nov-17 21:30N 30°11' W 093°19'2 4.3
2017-Nov-17 21:00N 30°09' W 093°20'3 6.2
2017-Nov-17 20:30N 30°06' W 093°20'1 2.6
2017-Nov-17 20:00N 30°05' W 093°20'0 0.0
2017-Nov-17 19:30N 30°05' W 093°20'0 0.0
2017-Nov-17 19:00N 30°05' W 093°20'0 0.0
2017-Nov-17 18:30N 30°05' W 093°20'0 0.0
2017-Nov-17 18:00N 30°05' W 093°20'0 0.0
2017-Nov-17 17:30N 30°05' W 093°20'0 0.0
2017-Nov-17 17:00N 30°05' W 093°20'0 0.0
2017-Nov-17 16:30N 30°05' W 093°20'0 0.0
2017-Nov-17 16:00N 30°05' W 093°20'0 0.0
2017-Nov-17 15:30N 30°05' W 093°20'0 0.0
2017-Nov-17 15:00N 30°05' W 093°20'0 0.0
2017-Nov-17 14:30N 30°05' W 093°20'0 0.0
2017-Nov-17 14:00N 30°05' W 093°20'0 0.0
2017-Nov-17 13:30N 30°05' W 093°20'0 0.0
2017-Nov-17 13:00N 30°05' W 093°20'0 0.0
2017-Nov-17 12:30N 30°05' W 093°20'0 0.0
2017-Nov-17 12:00N 30°05' W 093°20'0 0.0
2017-Nov-17 11:30N 30°05' W 093°20'0 0.0
2017-Nov-17 11:00N 30°05' W 093°20'0 0.0
2017-Nov-17 10:30N 30°05' W 093°20'0 0.0
2017-Nov-17 10:00N 30°05' W 093°20'0 0.0
2017-Nov-17 09:30N 30°05' W 093°20'0 0.0
2017-Nov-17 09:00N 30°05' W 093°20'0 0.0
2017-Nov-17 08:30N 30°05' W 093°20'0 0.0
2017-Nov-17 08:00N 30°05' W 093°20'0 0.0
2017-Nov-17 07:30N 30°05' W 093°20'0 0.0
2017-Nov-17 07:00N 30°05' W 093°20'0 0.0
2017-Nov-17 06:30N 30°05' W 093°20'0 0.0
2017-Nov-17 06:00N 30°05' W 093°20'0 0.0
2017-Nov-17 05:30N 30°05' W 093°20'0 0.0
2017-Nov-17 05:00N 30°05' W 093°20'0 0.0
2017-Nov-17 04:30N 30°05' W 093°20'0 0.0
2017-Nov-17 04:00N 30°05' W 093°20'0 0.0
2017-Nov-17 03:30N 30°05' W 093°20'0 0.8
2017-Nov-17 03:00N 30°05' W 093°20'0 0.0
2017-Nov-17 02:30N 30°05' W 093°20'0 0.0
2017-Nov-17 02:00N 30°05' W 093°20'0 0.0
2017-Nov-17 01:30N 30°05' W 093°20'0 0.9
2017-Nov-17 01:00N 30°05' W 093°20'0 0.3
2017-Nov-17 00:30N 30°05' W 093°20'1 2.7
2017-Nov-17 00:00N 30°06' W 093°20'2 3.7
2017-Nov-16 23:30N 30°08' W 093°20'0 0.9
2017-Nov-16 23:00N 30°08' W 093°19'0 0.0
2017-Nov-16 22:30N 30°08' W 093°19'0 0.0
2017-Nov-16 22:00N 30°08' W 093°19'0 0.0
2017-Nov-16 21:30N 30°08' W 093°19'0 0.0
2017-Nov-16 21:00N 30°08' W 093°19'0 0.0
2017-Nov-16 20:30N 30°08' W 093°19'0 0.0
2017-Nov-16 20:00N 30°08' W 093°19'0 0.0
2017-Nov-16 19:30N 30°08' W 093°19'0 0.0
2017-Nov-16 19:00N 30°08' W 093°19'0 0.0
2017-Nov-16 18:30N 30°08' W 093°19'0 0.0
2017-Nov-16 18:00N 30°08' W 093°19'0 0.0
2017-Nov-16 17:30N 30°08' W 093°19'0 0.0
2017-Nov-16 17:00N 30°08' W 093°19'0 0.0
2017-Nov-16 16:30N 30°08' W 093°19'0 0.0
2017-Nov-16 16:00N 30°08' W 093°19'0 0.0
2017-Nov-16 15:30N 30°08' W 093°19'0 0.0
2017-Nov-16 15:00N 30°08' W 093°19'0 0.0
2017-Nov-16 14:30N 30°08' W 093°19'0 0.0
2017-Nov-16 14:00N 30°08' W 093°19'0 0.0
2017-Nov-16 13:30N 30°08' W 093°19'0 0.0
2017-Nov-16 13:00N 30°08' W 093°19'0 0.0
2017-Nov-16 12:30N 30°08' W 093°19'0 0.0
2017-Nov-16 12:00N 30°08' W 093°19'0 0.0
2017-Nov-16 11:30N 30°08' W 093°19'0 0.0
2017-Nov-16 11:00N 30°08' W 093°19'0 0.0
2017-Nov-16 10:30N 30°08' W 093°19'0 0.0
2017-Nov-16 10:00N 30°08' W 093°19'0 0.0
2017-Nov-16 09:30N 30°08' W 093°19'0 0.0
2017-Nov-16 09:00N 30°08' W 093°19'0 0.0
2017-Nov-16 08:30N 30°08' W 093°19'0 0.0
2017-Nov-16 08:00N 30°08' W 093°19'0 0.0
2017-Nov-16 07:30N 30°08' W 093°19'0 0.0
2017-Nov-16 07:00N 30°08' W 093°19'0 0.0
2017-Nov-16 06:30N 30°08' W 093°19'0 0.0
2017-Nov-16 06:00N 30°08' W 093°19'0 0.4
2017-Nov-16 05:30N 30°08' W 093°19'0 0.6
2017-Nov-16 05:00N 30°08' W 093°20'0 0.0
2017-Nov-16 04:30N 30°08' W 093°20'0 0.0
2017-Nov-16 04:00N 30°08' W 093°20'0 0.0
2017-Nov-16 03:30N 30°08' W 093°20'0 0.0
2017-Nov-16 03:00N 30°08' W 093°20'0 0.0
2017-Nov-16 02:30N 30°08' W 093°20'0 0.0
2017-Nov-16 02:00N 30°08' W 093°20'0 0.0
2017-Nov-16 01:30N 30°08' W 093°20'1 2.7
2017-Nov-16 01:00N 30°07' W 093°20'2 4.8
2017-Nov-16 00:30N 30°04' W 093°20'2 3.3
2017-Nov-16 00:00N 30°04' W 093°22'3 5.2
2017-Nov-15 23:30N 30°04' W 093°25'3 5.5
2017-Nov-15 23:00N 30°04' W 093°28'3 5.1
2017-Nov-15 22:30N 30°04' W 093°31'2 3.1
2017-Nov-15 22:00N 30°04' W 093°33'3 5.3
2017-Nov-15 21:30N 30°04' W 093°36'3 6.0
2017-Nov-15 21:00N 30°04' W 093°40'72 4.5
2017-Nov-15 05:15N 29°32' W 094°54'2 8.1
2017-Nov-15 05:00N 29°33' W 094°55'4 8.2
2017-Nov-15 04:30N 29°37' W 094°57'4 7.9
2017-Nov-15 04:00N 29°41' W 094°59'5 7.1
2017-Nov-15 03:15N 29°44' W 095°03'2 7.9
2017-Nov-15 02:59N 29°46' W 095°05'  
2017-Nov-12 20:11N 29°44' W 095°08'1 5.8
2017-Nov-12 19:59N 29°44' W 095°09'3 0.1
2017-Nov-11 19:39N 29°44' W 095°12'0 0.2
2017-Nov-11 19:11N 29°44' W 095°12'0 0.7
2017-Nov-11 18:44N 29°44' W 095°12'2 5.9
2017-Nov-11 18:27N 29°45' W 095°10'4 5.5
2017-Nov-11 17:42N 29°45' W 095°06'3 0.8
2017-Nov-11 14:04N 29°48' W 095°04'0 0.0
2017-Nov-11 13:50N 29°48' W 095°04'2 0.5
2017-Nov-11 09:28N 29°46' W 095°05'3 6.9
2017-Nov-11 08:58N 29°44' W 095°02'3 7.2
2017-Nov-11 08:30N 29°41' W 094°59'5 8.3
2017-Nov-11 07:56N 29°37' W 094°57'4 8.2
2017-Nov-11 07:30N 29°34' W 094°55'76 5.1
2017-Nov-10 16:30N 30°04' W 093°34'3 5.9
2017-Nov-10 16:00N 30°04' W 093°31'3 5.9
2017-Nov-10 15:30N 30°04' W 093°28'3 5.8
2017-Nov-10 15:00N 30°04' W 093°24'3 5.8
2017-Nov-10 14:30N 30°04' W 093°21'1 2.7
2017-Nov-10 14:00N 30°05' W 093°20'1 1.3
2017-Nov-10 13:30N 30°05' W 093°20'0 0.1
2017-Nov-10 13:00N 30°05' W 093°20'2 4.5
2017-Nov-10 12:30N 30°07' W 093°20'3 7.0
2017-Nov-10 12:00N 30°10' W 093°19'1 2.0
2017-Nov-10 11:30N 30°11' W 093°19'0 0.0
2017-Nov-10 11:00N 30°11' W 093°19'0 0.0
2017-Nov-10 10:30N 30°11' W 093°19'0 0.0
2017-Nov-10 10:00N 30°11' W 093°19'0 0.0
2017-Nov-10 09:30N 30°11' W 093°19'0 0.0
2017-Nov-10 09:00N 30°11' W 093°19'0 0.0
2017-Nov-10 08:30N 30°11' W 093°19'0 0.0
2017-Nov-10 08:00N 30°11' W 093°19'0 0.0
2017-Nov-10 07:30N 30°11' W 093°19'0 0.0
2017-Nov-10 07:00N 30°11' W 093°19'0 0.0
2017-Nov-10 06:30N 30°11' W 093°19'0 0.0
2017-Nov-10 06:00N 30°11' W 093°19'0 0.0
2017-Nov-10 05:30N 30°11' W 093°19'0 0.0
2017-Nov-10 05:00N 30°11' W 093°19'0 0.0
2017-Nov-10 04:30N 30°11' W 093°19'0 0.0
2017-Nov-10 04:00N 30°11' W 093°19'0 0.0
2017-Nov-10 03:30N 30°11' W 093°19'0 0.0
2017-Nov-10 03:00N 30°11' W 093°19'0 0.0
2017-Nov-10 02:30N 30°11' W 093°19'0 0.0
2017-Nov-10 02:00N 30°11' W 093°19'0 0.0
2017-Nov-10 01:30N 30°11' W 093°19'0 0.0
2017-Nov-10 01:00N 30°11' W 093°19'0 0.0
2017-Nov-10 00:30N 30°11' W 093°19'0 0.0
2017-Nov-10 00:00N 30°11' W 093°19'0 0.0
2017-Nov-09 23:30N 30°11' W 093°19'0 0.0
2017-Nov-09 23:00N 30°11' W 093°19'0 0.0
2017-Nov-09 22:30N 30°11' W 093°19'0 0.0
2017-Nov-09 22:00N 30°11' W 093°19'0 0.0
2017-Nov-09 21:30N 30°11' W 093°19'0 0.0
2017-Nov-09 21:00N 30°11' W 093°19'0 0.0
2017-Nov-09 20:30N 30°11' W 093°19'0 0.0
2017-Nov-09 20:00N 30°11' W 093°19'0 0.0
2017-Nov-09 19:30N 30°11' W 093°19'0 0.0
2017-Nov-09 19:00N 30°11' W 093°19'0 0.0
2017-Nov-09 18:30N 30°11' W 093°19'0 0.0
2017-Nov-09 18:00N 30°11' W 093°19'  
Track history (hours):
 
Tides and Currents Weather Stations Pressure Air Temp Water Temp Dewpoint Dewpoint Depression Visibility Wind Speed Wind Dir Waves Ship Positions

Capt. Frank Banta Jr

Owner: Chem Carriers Towing, LLC, Sunshine, LA. More information available from US FCC via Universal Licensing System and Coast Guard Vessel Documentation Center.

Last reported at 2017-Nov-19 18:00 UTC. Time now 2017-Nov-19 18:11 UTC.
Position N 30°11' W 093°19'.

Length 27 m.

Type: Tug. MMSI: 367637540.

Date/timePositionNaut miles runAvg speedWind from/ knotsBaromVisibWave heightAir tempDewpointWater temp
2017-Nov-19 18:00N 30°11' W 093°19'0 0.0
2017-Nov-19 17:30N 30°11' W 093°19'0 0.0
2017-Nov-19 17:00N 30°11' W 093°19'0 0.0
2017-Nov-19 16:30N 30°11' W 093°19'0 0.0
2017-Nov-19 16:00N 30°11' W 093°19'0 0.0
2017-Nov-19 15:30N 30°11' W 093°19'0 0.0
2017-Nov-19 15:00N 30°11' W 093°19'0 0.0
2017-Nov-19 14:30N 30°11' W 093°19'0 0.0
2017-Nov-19 14:00N 30°11' W 093°19'0 0.0
2017-Nov-19 13:30N 30°11' W 093°19'0 0.0
2017-Nov-19 13:00N 30°11' W 093°19'0 0.0
2017-Nov-19 12:30N 30°11' W 093°19'0 0.0
2017-Nov-19 12:00N 30°11' W 093°19'0 0.0
2017-Nov-19 11:30N 30°11' W 093°19'0 0.0
2017-Nov-19 11:00N 30°11' W 093°19'0 0.0
2017-Nov-19 10:30N 30°11' W 093°19'0 0.0
2017-Nov-19 10:00N 30°11' W 093°19'0 0.0
2017-Nov-19 09:30N 30°11' W 093°19'0 0.0
2017-Nov-19 09:00N 30°11' W 093°19'0 0.0
2017-Nov-19 08:30N 30°11' W 093°19'0 0.0
2017-Nov-19 08:00N 30°11' W 093°19'0 0.0
2017-Nov-19 07:30N 30°11' W 093°19'0 0.0
2017-Nov-19 07:00N 30°11' W 093°19'0 0.0
2017-Nov-19 06:30N 30°11' W 093°19'0 0.0
2017-Nov-19 06:00N 30°11' W 093°19'0 0.0
2017-Nov-19 05:30N 30°11' W 093°19'0 0.0
2017-Nov-19 05:00N 30°11' W 093°19'0 0.0
2017-Nov-19 04:30N 30°11' W 093°19'0 0.0
2017-Nov-19 04:00N 30°11' W 093°19'0 0.0
2017-Nov-19 03:30N 30°11' W 093°19'0 0.0
2017-Nov-19 03:00N 30°11' W 093°19'0 0.0
2017-Nov-19 02:30N 30°11' W 093°19'0 0.0
2017-Nov-19 02:00N 30°11' W 093°19'0 0.0
2017-Nov-19 01:30N 30°11' W 093°19'0 0.0
2017-Nov-19 01:00N 30°11' W 093°19'0 0.4
2017-Nov-19 00:30N 30°11' W 093°18'0 0.7
2017-Nov-19 00:00N 30°11' W 093°19'3 5.3
2017-Nov-18 23:30N 30°09' W 093°20'3 6.8
2017-Nov-18 23:00N 30°05' W 093°20'1 2.5
2017-Nov-18 22:30N 30°04' W 093°21'2 4.7
2017-Nov-18 22:00N 30°06' W 093°20'4 7.3
2017-Nov-18 21:30N 30°10' W 093°19'1 2.3
2017-Nov-18 21:00N 30°11' W 093°19'0 0.0
2017-Nov-18 20:30N 30°11' W 093°19'0 0.3
2017-Nov-18 20:00N 30°11' W 093°19'0 0.0
2017-Nov-18 19:30N 30°11' W 093°19'0 0.0
2017-Nov-18 19:00N 30°11' W 093°19'0 0.0
2017-Nov-18 18:30N 30°11' W 093°19'0 0.0
2017-Nov-18 18:00N 30°11' W 093°19'0 0.0
2017-Nov-18 17:30N 30°11' W 093°19'0 0.0
2017-Nov-18 17:00N 30°11' W 093°19'0 0.0
2017-Nov-18 16:30N 30°11' W 093°19'0 0.0
2017-Nov-18 16:00N 30°11' W 093°19'0 0.0
2017-Nov-18 15:30N 30°11' W 093°19'0 0.0
2017-Nov-18 15:00N 30°11' W 093°19'0 0.0
2017-Nov-18 14:30N 30°11' W 093°19'0 0.0
2017-Nov-18 14:00N 30°11' W 093°19'0 0.0
2017-Nov-18 13:30N 30°11' W 093°19'0 0.0
2017-Nov-18 13:00N 30°11' W 093°19'0 0.0
2017-Nov-18 12:30N 30°11' W 093°19'0 0.0
2017-Nov-18 12:00N 30°11' W 093°19'0 0.0
2017-Nov-18 11:30N 30°11' W 093°19'0 0.0
2017-Nov-18 11:00N 30°11' W 093°19'0 0.0
2017-Nov-18 10:30N 30°11' W 093°19'0 0.0
2017-Nov-18 10:00N 30°11' W 093°19'0 0.0
2017-Nov-18 09:30N 30°11' W 093°19'0 0.0
2017-Nov-18 09:00N 30°11' W 093°19'0 0.0
2017-Nov-18 08:30N 30°11' W 093°19'0 0.0
2017-Nov-18 08:00N 30°11' W 093°19'0 0.0
2017-Nov-18 07:30N 30°11' W 093°19'0 0.0
2017-Nov-18 07:00N 30°11' W 093°19'0 0.0
2017-Nov-18 06:30N 30°11' W 093°19'0 0.0
2017-Nov-18 06:00N 30°11' W 093°19'0 0.0
2017-Nov-18 05:30N 30°11' W 093°19'0 0.0
2017-Nov-18 05:00N 30°11' W 093°19'0 0.0
2017-Nov-18 04:30N 30°11' W 093°19'0 0.0
2017-Nov-18 04:00N 30°11' W 093°19'0 0.0
2017-Nov-18 03:30N 30°11' W 093°19'0 0.0
2017-Nov-18 03:00N 30°11' W 093°19'0 0.3
2017-Nov-18 02:30N 30°11' W 093°19'0 0.3
2017-Nov-18 02:00N 30°11' W 093°19'0 0.0
2017-Nov-18 01:30N 30°11' W 093°19'0 0.0
2017-Nov-18 01:00N 30°11' W 093°19'0 0.0
2017-Nov-18 00:30N 30°11' W 093°19'0 0.0
2017-Nov-18 00:00N 30°11' W 093°19'0 0.0
2017-Nov-17 23:30N 30°11' W 093°19'0 0.0
2017-Nov-17 23:00N 30°11' W 093°19'0 0.0
2017-Nov-17 22:30N 30°11' W 093°19'0 0.0
2017-Nov-17 22:00N 30°11' W 093°19'0 0.1
2017-Nov-17 21:30N 30°11' W 093°19'2 4.3
2017-Nov-17 21:00N 30°09' W 093°20'3 6.2
2017-Nov-17 20:30N 30°06' W 093°20'1 2.6
2017-Nov-17 20:00N 30°05' W 093°20'0 0.0
2017-Nov-17 19:30N 30°05' W 093°20'0 0.0
2017-Nov-17 19:00N 30°05' W 093°20'0 0.0
2017-Nov-17 18:30N 30°05' W 093°20'0 0.0
2017-Nov-17 18:00N 30°05' W 093°20'0 0.0
2017-Nov-17 17:30N 30°05' W 093°20'0 0.0
2017-Nov-17 17:00N 30°05' W 093°20'0 0.0
2017-Nov-17 16:30N 30°05' W 093°20'0 0.0
2017-Nov-17 16:00N 30°05' W 093°20'0 0.0
2017-Nov-17 15:30N 30°05' W 093°20'0 0.0
2017-Nov-17 15:00N 30°05' W 093°20'0 0.0
2017-Nov-17 14:30N 30°05' W 093°20'0 0.0
2017-Nov-17 14:00N 30°05' W 093°20'0 0.0
2017-Nov-17 13:30N 30°05' W 093°20'0 0.0
2017-Nov-17 13:00N 30°05' W 093°20'0 0.0
2017-Nov-17 12:30N 30°05' W 093°20'0 0.0
2017-Nov-17 12:00N 30°05' W 093°20'0 0.0
2017-Nov-17 11:30N 30°05' W 093°20'0 0.0
2017-Nov-17 11:00N 30°05' W 093°20'0 0.0
2017-Nov-17 10:30N 30°05' W 093°20'0 0.0
2017-Nov-17 10:00N 30°05' W 093°20'0 0.0
2017-Nov-17 09:30N 30°05' W 093°20'0 0.0
2017-Nov-17 09:00N 30°05' W 093°20'0 0.0
2017-Nov-17 08:30N 30°05' W 093°20'0 0.0
2017-Nov-17 08:00N 30°05' W 093°20'0 0.0
2017-Nov-17 07:30N 30°05' W 093°20'0 0.0
2017-Nov-17 07:00N 30°05' W 093°20'0 0.0
2017-Nov-17 06:30N 30°05' W 093°20'0 0.0
2017-Nov-17 06:00N 30°05' W 093°20'0 0.0
2017-Nov-17 05:30N 30°05' W 093°20'0 0.0
2017-Nov-17 05:00N 30°05' W 093°20'0 0.0
2017-Nov-17 04:30N 30°05' W 093°20'0 0.0
2017-Nov-17 04:00N 30°05' W 093°20'0 0.0
2017-Nov-17 03:30N 30°05' W 093°20'0 0.8
2017-Nov-17 03:00N 30°05' W 093°20'0 0.0
2017-Nov-17 02:30N 30°05' W 093°20'0 0.0
2017-Nov-17 02:00N 30°05' W 093°20'0 0.0
2017-Nov-17 01:30N 30°05' W 093°20'0 0.9
2017-Nov-17 01:00N 30°05' W 093°20'0 0.3
2017-Nov-17 00:30N 30°05' W 093°20'1 2.7
2017-Nov-17 00:00N 30°06' W 093°20'2 3.7
2017-Nov-16 23:30N 30°08' W 093°20'0 0.9
2017-Nov-16 23:00N 30°08' W 093°19'0 0.0
2017-Nov-16 22:30N 30°08' W 093°19'0 0.0
2017-Nov-16 22:00N 30°08' W 093°19'0 0.0
2017-Nov-16 21:30N 30°08' W 093°19'0 0.0
2017-Nov-16 21:00N 30°08' W 093°19'0 0.0
2017-Nov-16 20:30N 30°08' W 093°19'0 0.0
2017-Nov-16 20:00N 30°08' W 093°19'0 0.0
2017-Nov-16 19:30N 30°08' W 093°19'0 0.0
2017-Nov-16 19:00N 30°08' W 093°19'0 0.0
2017-Nov-16 18:30N 30°08' W 093°19'0 0.0
2017-Nov-16 18:00N 30°08' W 093°19'0 0.0
2017-Nov-16 17:30N 30°08' W 093°19'0 0.0
2017-Nov-16 17:00N 30°08' W 093°19'0 0.0
2017-Nov-16 16:30N 30°08' W 093°19'0 0.0
2017-Nov-16 16:00N 30°08' W 093°19'0 0.0
2017-Nov-16 15:30N 30°08' W 093°19'0 0.0
2017-Nov-16 15:00N 30°08' W 093°19'0 0.0
2017-Nov-16 14:30N 30°08' W 093°19'0 0.0
2017-Nov-16 14:00N 30°08' W 093°19'0 0.0
2017-Nov-16 13:30N 30°08' W 093°19'0 0.0
2017-Nov-16 13:00N 30°08' W 093°19'0 0.0
2017-Nov-16 12:30N 30°08' W 093°19'0 0.0
2017-Nov-16 12:00N 30°08' W 093°19'0 0.0
2017-Nov-16 11:30N 30°08' W 093°19'0 0.0
2017-Nov-16 11:00N 30°08' W 093°19'0 0.0
2017-Nov-16 10:30N 30°08' W 093°19'0 0.0
2017-Nov-16 10:00N 30°08' W 093°19'0 0.0
2017-Nov-16 09:30N 30°08' W 093°19'0 0.0
2017-Nov-16 09:00N 30°08' W 093°19'0 0.0
2017-Nov-16 08:30N 30°08' W 093°19'0 0.0
2017-Nov-16 08:00N 30°08' W 093°19'0 0.0
2017-Nov-16 07:30N 30°08' W 093°19'0 0.0
2017-Nov-16 07:00N 30°08' W 093°19'0 0.0
2017-Nov-16 06:30N 30°08' W 093°19'0 0.0
2017-Nov-16 06:00N 30°08' W 093°19'0 0.4
2017-Nov-16 05:30N 30°08' W 093°19'0 0.6
2017-Nov-16 05:00N 30°08' W 093°20'0 0.0
2017-Nov-16 04:30N 30°08' W 093°20'0 0.0
2017-Nov-16 04:00N 30°08' W 093°20'0 0.0
2017-Nov-16 03:30N 30°08' W 093°20'0 0.0
2017-Nov-16 03:00N 30°08' W 093°20'0 0.0
2017-Nov-16 02:30N 30°08' W 093°20'0 0.0
2017-Nov-16 02:00N 30°08' W 093°20'0 0.0
2017-Nov-16 01:30N 30°08' W 093°20'1 2.7
2017-Nov-16 01:00N 30°07' W 093°20'2 4.8
2017-Nov-16 00:30N 30°04' W 093°20'2 3.3
2017-Nov-16 00:00N 30°04' W 093°22'3 5.2
2017-Nov-15 23:30N 30°04' W 093°25'3 5.5
2017-Nov-15 23:00N 30°04' W 093°28'3 5.1
2017-Nov-15 22:30N 30°04' W 093°31'2 3.1
2017-Nov-15 22:00N 30°04' W 093°33'3 5.3
2017-Nov-15 21:30N 30°04' W 093°36'3 6.0
2017-Nov-15 21:00N 30°04' W 093°40'72 4.5
2017-Nov-15 05:15N 29°32' W 094°54'2 8.1
2017-Nov-15 05:00N 29°33' W 094°55'4 8.2
2017-Nov-15 04:30N 29°37' W 094°57'4 7.9
2017-Nov-15 04:00N 29°41' W 094°59'5 7.1
2017-Nov-15 03:15N 29°44' W 095°03'2 7.9
2017-Nov-15 02:59N 29°46' W 095°05'  
2017-Nov-12 20:11N 29°44' W 095°08'1 5.8
2017-Nov-12 19:59N 29°44' W 095°09'3 0.1
2017-Nov-11 19:39N 29°44' W 095°12'0 0.2
2017-Nov-11 19:11N 29°44' W 095°12'0 0.7
2017-Nov-11 18:44N 29°44' W 095°12'2 5.9
2017-Nov-11 18:27N 29°45' W 095°10'4 5.5
2017-Nov-11 17:42N 29°45' W 095°06'3 0.8
2017-Nov-11 14:04N 29°48' W 095°04'0 0.0
2017-Nov-11 13:50N 29°48' W 095°04'2 0.5
2017-Nov-11 09:28N 29°46' W 095°05'3 6.9
2017-Nov-11 08:58N 29°44' W 095°02'3 7.2
2017-Nov-11 08:30N 29°41' W 094°59'5 8.3
2017-Nov-11 07:56N 29°37' W 094°57'4 8.2
2017-Nov-11 07:30N 29°34' W 094°55'76 5.1
2017-Nov-10 16:30N 30°04' W 093°34'3 5.9
2017-Nov-10 16:00N 30°04' W 093°31'3 5.9
2017-Nov-10 15:30N 30°04' W 093°28'3 5.8
2017-Nov-10 15:00N 30°04' W 093°24'3 5.8
2017-Nov-10 14:30N 30°04' W 093°21'1 2.7
2017-Nov-10 14:00N 30°05' W 093°20'1 1.3
2017-Nov-10 13:30N 30°05' W 093°20'0 0.1
2017-Nov-10 13:00N 30°05' W 093°20'2 4.5
2017-Nov-10 12:30N 30°07' W 093°20'3 7.0
2017-Nov-10 12:00N 30°10' W 093°19'1 2.0
2017-Nov-10 11:30N 30°11' W 093°19'0 0.0
2017-Nov-10 11:00N 30°11' W 093°19'0 0.0
2017-Nov-10 10:30N 30°11' W 093°19'0 0.0
2017-Nov-10 10:00N 30°11' W 093°19'0 0.0
2017-Nov-10 09:30N 30°11' W 093°19'0 0.0
2017-Nov-10 09:00N 30°11' W 093°19'0 0.0
2017-Nov-10 08:30N 30°11' W 093°19'0 0.0
2017-Nov-10 08:00N 30°11' W 093°19'0 0.0
2017-Nov-10 07:30N 30°11' W 093°19'0 0.0
2017-Nov-10 07:00N 30°11' W 093°19'0 0.0
2017-Nov-10 06:30N 30°11' W 093°19'0 0.0
2017-Nov-10 06:00N 30°11' W 093°19'0 0.0
2017-Nov-10 05:30N 30°11' W 093°19'0 0.0
2017-Nov-10 05:00N 30°11' W 093°19'0 0.0
2017-Nov-10 04:30N 30°11' W 093°19'0 0.0
2017-Nov-10 04:00N 30°11' W 093°19'0 0.0
2017-Nov-10 03:30N 30°11' W 093°19'0 0.0
2017-Nov-10 03:00N 30°11' W 093°19'0 0.0
2017-Nov-10 02:30N 30°11' W 093°19'0 0.0
2017-Nov-10 02:00N 30°11' W 093°19'0 0.0
2017-Nov-10 01:30N 30°11' W 093°19'0 0.0
2017-Nov-10 01:00N 30°11' W 093°19'0 0.0
2017-Nov-10 00:30N 30°11' W 093°19'0 0.0
2017-Nov-10 00:00N 30°11' W 093°19'0 0.0
2017-Nov-09 23:30N 30°11' W 093°19'0 0.0
2017-Nov-09 23:00N 30°11' W 093°19'0 0.0
2017-Nov-09 22:30N 30°11' W 093°19'0 0.0
2017-Nov-09 22:00N 30°11' W 093°19'0 0.0
2017-Nov-09 21:30N 30°11' W 093°19'0 0.0
2017-Nov-09 21:00N 30°11' W 093°19'0 0.0
2017-Nov-09 20:30N 30°11' W 093°19'0 0.0
2017-Nov-09 20:00N 30°11' W 093°19'0 0.0
2017-Nov-09 19:30N 30°11' W 093°19'0 0.0
2017-Nov-09 19:00N 30°11' W 093°19'0 0.0
2017-Nov-09 18:30N 30°11' W 093°19'0 0.0
2017-Nov-09 18:00N 30°11' W 093°19'  

Dump ship's entire track history